createdAt,value
2018-05-25T00:00:57.809Z,21.60
2018-05-25T00:03:23.699Z,21.30
2018-05-25T00:05:49.595Z,13.20
2018-05-25T00:08:15.498Z,11.50
2018-05-25T00:10:41.397Z,10.03
2018-05-25T00:13:07.328Z,6.00
2018-05-25T00:15:33.194Z,15.93
2018-05-25T00:17:59.094Z,4.63
2018-05-25T00:20:25.009Z,7.83
2018-05-25T00:22:50.916Z,7.43
2018-05-25T00:25:16.820Z,5.30
2018-05-25T00:27:42.689Z,4.10
2018-05-25T00:30:08.597Z,6.40
2018-05-25T00:32:34.487Z,6.33
2018-05-25T00:35:00.389Z,6.60
2018-05-25T00:37:26.276Z,4.27
2018-05-25T00:39:52.177Z,3.73
2018-05-25T00:42:18.066Z,3.53
2018-05-25T00:44:43.982Z,5.90
2018-05-25T00:47:09.881Z,3.67
2018-05-25T00:49:35.763Z,3.83
2018-05-25T00:52:01.706Z,3.97
2018-05-25T00:54:27.605Z,4.03
2018-05-25T00:56:53.621Z,4.70
2018-05-25T00:59:19.521Z,4.00
2018-05-25T01:01:45.421Z,3.90
2018-05-25T01:04:11.319Z,3.90
2018-05-25T01:06:37.161Z,4.00
2018-05-25T01:09:02.979Z,4.10
2018-05-25T01:11:28.771Z,3.57
2018-05-25T01:13:54.577Z,3.43
2018-05-25T01:16:20.357Z,4.03
2018-05-25T01:18:46.186Z,4.17
2018-05-25T01:21:11.969Z,3.70
2018-05-25T01:23:37.765Z,5.50
2018-05-25T01:26:03.598Z,4.50
2018-05-25T01:28:29.378Z,3.80
2018-05-25T01:30:55.182Z,4.87
2018-05-25T01:33:20.996Z,4.03
2018-05-25T01:35:46.787Z,3.40
2018-05-25T01:38:12.583Z,4.50
2018-05-25T01:40:38.385Z,4.30
2018-05-25T01:43:04.198Z,4.13
2018-05-25T01:45:29.977Z,3.53
2018-05-25T01:47:55.805Z,4.23
2018-05-25T01:50:21.591Z,4.83
2018-05-25T01:52:47.396Z,4.17
2018-05-25T01:55:13.181Z,3.90
2018-05-25T01:57:38.990Z,4.30
2018-05-25T02:00:04.805Z,3.47
2018-05-25T02:02:30.585Z,4.50
2018-05-25T02:04:56.380Z,4.60
2018-05-25T02:07:22.308Z,4.37
2018-05-25T02:09:48.090Z,4.70
2018-05-25T02:12:13.902Z,4.40
2018-05-25T02:14:39.712Z,3.73
2018-05-25T02:17:05.495Z,4.03
2018-05-25T02:19:31.302Z,4.00
2018-05-25T02:21:57.094Z,3.80
2018-05-25T02:24:22.890Z,3.90
2018-05-25T02:26:48.706Z,3.90
2018-05-25T02:29:14.497Z,3.93
2018-05-25T02:31:40.312Z,4.20
2018-05-25T02:34:06.105Z,4.00
2018-05-25T02:36:31.881Z,4.90
2018-05-25T02:38:57.677Z,4.60
2018-05-25T02:41:23.461Z,4.40
2018-05-25T02:43:49.569Z,4.00
2018-05-25T02:46:15.362Z,4.20
2018-05-25T02:48:41.183Z,4.30
2018-05-25T02:51:06.975Z,3.60
2018-05-25T02:53:32.769Z,4.63
2018-05-25T02:55:58.567Z,4.93
2018-05-25T02:58:24.406Z,4.97
2018-05-25T03:00:50.202Z,4.00
2018-05-25T03:03:16.025Z,4.03
2018-05-25T03:05:41.825Z,5.70
2018-05-25T03:08:07.618Z,3.90
2018-05-25T03:10:33.442Z,4.17
2018-05-25T03:12:59.285Z,4.40
2018-05-25T03:15:25.098Z,3.90
2018-05-25T03:17:50.892Z,4.30
2018-05-25T03:20:16.696Z,4.70
2018-05-25T03:22:42.649Z,4.40
2018-05-25T03:25:08.339Z,4.20
2018-05-25T03:27:34.140Z,4.20
2018-05-25T03:29:59.944Z,4.60
2018-05-25T03:32:25.840Z,4.67
2018-05-25T03:34:51.633Z,5.13
2018-05-25T03:37:17.428Z,5.07
2018-05-25T03:39:43.208Z,3.97
2018-05-25T03:42:09.020Z,5.13
2018-05-25T03:44:34.824Z,4.97
2018-05-25T03:47:00.618Z,4.50
2018-05-25T03:49:26.420Z,4.23
2018-05-25T03:51:52.231Z,4.40
2018-05-25T03:54:18.081Z,5.40
2018-05-25T03:56:43.864Z,4.20
2018-05-25T04:02:07.732Z,5.00
2018-05-25T04:04:33.538Z,4.33
2018-05-25T04:06:59.314Z,4.23
2018-05-25T04:09:25.133Z,4.97
2018-05-25T04:11:50.921Z,4.00
2018-05-25T04:14:16.726Z,4.77
2018-05-25T04:16:42.812Z,4.07
2018-05-25T04:19:08.615Z,4.30
2018-05-25T04:21:34.397Z,4.30
2018-05-25T04:24:00.217Z,4.57
2018-05-25T04:26:26.009Z,3.83
2018-05-25T04:28:51.806Z,5.80
2018-05-25T04:31:17.621Z,4.40
2018-05-25T04:33:43.401Z,4.23
2018-05-25T04:36:09.321Z,4.10
2018-05-25T04:38:35.115Z,5.03
2018-05-25T04:41:00.923Z,5.03
2018-05-25T04:43:26.733Z,5.00
2018-05-25T04:45:52.531Z,4.53
2018-05-25T04:48:18.318Z,4.67
2018-05-25T04:50:44.126Z,4.30
2018-05-25T04:53:09.951Z,4.07
2018-05-25T04:55:35.741Z,4.60
2018-05-25T04:58:01.521Z,4.90
2018-05-25T05:00:27.363Z,5.20
2018-05-25T05:02:53.174Z,4.90
2018-05-25T05:05:18.958Z,4.63
2018-05-25T05:07:44.766Z,5.10
2018-05-25T05:10:10.570Z,5.50
2018-05-25T05:12:36.369Z,4.80
2018-05-25T05:15:02.225Z,4.53
2018-05-25T05:17:28.038Z,4.53
2018-05-25T05:19:53.829Z,4.57
2018-05-25T05:22:19.624Z,5.50
2018-05-25T05:24:45.455Z,5.83
2018-05-25T05:27:11.254Z,5.20
2018-05-25T05:29:37.047Z,4.33
2018-05-25T05:32:02.873Z,5.30
2018-05-25T05:34:28.675Z,4.70
2018-05-25T05:36:54.475Z,4.70
2018-05-25T05:39:20.258Z,6.70
2018-05-25T05:41:46.066Z,4.50
2018-05-25T05:44:11.866Z,4.80
2018-05-25T05:46:37.673Z,4.50
2018-05-25T05:49:03.493Z,5.53
2018-05-25T05:51:29.296Z,4.67
2018-05-25T05:53:55.080Z,5.10
2018-05-25T05:56:20.886Z,4.83
2018-05-25T05:58:46.718Z,5.70
2018-05-25T06:01:12.525Z,7.00
2018-05-25T06:03:38.331Z,5.10
2018-05-25T06:06:04.130Z,4.60
2018-05-25T06:08:29.923Z,5.03
2018-05-25T06:10:56.087Z,4.70
2018-05-25T06:13:22.727Z,5.10
2018-05-25T06:15:48.585Z,4.70
2018-05-25T06:18:14.411Z,4.90
2018-05-25T06:20:40.204Z,5.20
2018-05-25T06:23:05.991Z,4.77
2018-05-25T06:25:31.905Z,4.20
2018-05-25T06:27:57.706Z,4.67
2018-05-25T06:30:23.505Z,4.20
2018-05-25T06:32:49.393Z,5.30
2018-05-25T06:35:15.215Z,5.87
2018-05-25T06:37:40.993Z,4.53
2018-05-25T06:40:06.797Z,5.17
2018-05-25T06:42:32.592Z,4.40
2018-05-25T06:44:58.386Z,8.90
2018-05-25T06:47:24.180Z,4.60
2018-05-25T06:49:50.306Z,5.50
2018-05-25T06:52:16.097Z,7.10
2018-05-25T06:54:41.898Z,9.37
2018-05-25T06:57:07.738Z,8.90
2018-05-25T06:59:33.520Z,8.10
2018-05-25T07:01:59.565Z,6.47
2018-05-25T07:04:25.881Z,3.80
2018-05-25T07:06:51.944Z,4.43
2018-05-25T07:09:18.206Z,4.90
2018-05-25T07:11:44.586Z,4.60
2018-05-25T07:14:10.846Z,4.33
2018-05-25T07:16:36.847Z,4.37
2018-05-25T07:19:02.658Z,4.27
2018-05-25T07:21:29.286Z,5.03
2018-05-25T07:23:55.139Z,4.50
2018-05-25T07:26:20.932Z,4.60
2018-05-25T07:28:53.773Z,5.17
2018-05-25T07:31:19.587Z,4.87
2018-05-25T07:33:45.397Z,4.83
2018-05-25T07:36:11.181Z,4.40
2018-05-25T07:38:36.965Z,5.50
2018-05-25T07:41:02.802Z,4.00
2018-05-25T07:43:28.596Z,4.20
2018-05-25T07:45:54.419Z,4.73
2018-05-25T07:48:20.203Z,4.13
2018-05-25T07:50:45.993Z,4.73
2018-05-25T07:53:12.159Z,4.57
2018-05-25T07:55:37.989Z,4.20
2018-05-25T07:58:03.781Z,4.77
2018-05-25T08:00:29.885Z,3.80
2018-05-25T08:02:55.691Z,4.30
2018-05-25T08:05:21.468Z,4.33
2018-05-25T08:07:47.245Z,5.20
2018-05-25T08:10:13.049Z,4.50
2018-05-25T08:12:38.834Z,5.27
2018-05-25T08:15:04.616Z,4.83
2018-05-25T08:17:30.436Z,4.00
2018-05-25T08:19:56.225Z,4.17
2018-05-25T08:22:22.013Z,4.43
2018-05-25T08:24:47.822Z,5.00
2018-05-25T08:27:14.133Z,4.50
2018-05-25T08:29:39.949Z,4.83
2018-05-25T08:32:05.755Z,4.97
2018-05-25T08:34:37.792Z,4.60
2018-05-25T08:37:03.585Z,4.60
2018-05-25T08:39:29.377Z,4.23
2018-05-25T08:41:55.185Z,5.07
2018-05-25T08:44:20.986Z,5.20
2018-05-25T08:46:46.794Z,5.20
2018-05-25T08:49:12.619Z,4.70
2018-05-25T08:51:38.409Z,4.90
2018-05-25T08:54:04.187Z,5.13
2018-05-25T08:56:29.974Z,4.67
2018-05-25T08:58:55.748Z,3.77
2018-05-25T09:01:21.814Z,4.97
2018-05-25T09:03:47.634Z,4.50
2018-05-25T09:06:13.426Z,4.30
2018-05-25T09:08:39.249Z,5.47
2018-05-25T09:11:05.054Z,4.03
2018-05-25T09:13:30.832Z,4.47
2018-05-25T09:15:56.643Z,4.73
2018-05-25T09:18:22.418Z,4.60
2018-05-25T09:20:48.230Z,4.53
2018-05-25T09:23:14.030Z,4.00
2018-05-25T09:25:39.843Z,4.67
2018-05-25T09:28:05.647Z,4.70
2018-05-25T09:30:31.506Z,4.23
2018-05-25T09:32:57.287Z,3.90
2018-05-25T09:35:23.082Z,3.97
2018-05-25T09:37:48.886Z,4.40
2018-05-25T09:40:14.761Z,4.13
2018-05-25T09:42:40.592Z,4.77
2018-05-25T09:45:06.564Z,3.70
2018-05-25T09:47:32.543Z,4.80
2018-05-25T09:49:59.361Z,3.57
2018-05-25T09:52:25.230Z,4.30
2018-05-25T09:54:51.105Z,4.67
2018-05-25T09:57:16.919Z,3.70
2018-05-25T09:59:42.745Z,4.43
2018-05-25T10:02:08.567Z,4.40
2018-05-25T10:04:34.364Z,4.87
2018-05-25T10:07:00.189Z,4.10
2018-05-25T10:09:25.993Z,4.53
2018-05-25T10:11:51.797Z,3.97
2018-05-25T10:14:17.597Z,4.20
2018-05-25T10:16:43.379Z,3.57
2018-05-25T10:19:09.191Z,4.30
2018-05-25T10:21:35.255Z,4.13
2018-05-25T10:24:01.055Z,3.97
2018-05-25T10:26:26.875Z,4.00
2018-05-25T10:28:52.702Z,3.93
2018-05-25T10:31:18.490Z,4.50
2018-05-25T10:33:44.284Z,4.43
2018-05-25T10:36:10.114Z,3.50
2018-05-25T10:38:35.921Z,3.40
2018-05-25T10:41:01.755Z,3.70
2018-05-25T10:43:27.845Z,3.53
2018-05-25T10:45:53.631Z,3.60
2018-05-25T10:48:19.415Z,3.57
2018-05-25T10:50:45.217Z,3.13
2018-05-25T10:53:11.016Z,3.60
2018-05-25T10:55:37.111Z,4.80
2018-05-25T10:58:02.918Z,3.83
2018-05-25T11:00:28.717Z,3.43
2018-05-25T11:02:54.771Z,5.13
2018-05-25T11:05:20.583Z,3.37
2018-05-25T11:07:46.401Z,3.57
2018-05-25T11:10:12.235Z,3.53
2018-05-25T11:12:38.026Z,4.13
2018-05-25T11:15:03.847Z,3.90
2018-05-25T11:17:29.997Z,4.70
2018-05-25T11:19:55.795Z,3.53
2018-05-25T11:22:21.624Z,4.23
2018-05-25T11:24:47.457Z,3.97
2018-05-25T11:27:13.254Z,3.60
2018-05-25T11:29:39.045Z,3.93
2018-05-25T11:32:04.903Z,4.27
2018-05-25T11:34:30.685Z,5.37
2018-05-25T11:36:56.497Z,3.10
2018-05-25T11:39:22.361Z,3.13
2018-05-25T11:41:48.161Z,3.60
2018-05-25T11:44:13.997Z,3.13
2018-05-25T11:46:39.811Z,5.27
2018-05-25T11:49:05.619Z,4.97
2018-05-25T11:51:31.431Z,6.53
2018-05-25T11:53:57.249Z,17.33
2018-05-25T11:56:23.046Z,12.03
2018-05-25T11:58:48.842Z,9.37
2018-05-25T12:01:14.829Z,7.00
2018-05-25T12:03:40.652Z,4.40
2018-05-25T12:06:06.492Z,4.73
2018-05-25T12:08:32.326Z,5.60
2018-05-25T12:10:58.115Z,6.37
2018-05-25T12:13:23.938Z,12.80
2018-05-25T12:15:50.065Z,4.73
2018-05-25T12:18:15.846Z,5.00
2018-05-25T12:20:41.660Z,5.30
2018-05-25T12:23:07.459Z,9.30
2018-05-25T12:25:33.253Z,5.57
2018-05-25T12:27:59.072Z,3.57
2018-05-25T12:30:24.889Z,6.30
2018-05-25T12:32:50.689Z,5.30
2018-05-25T12:35:16.491Z,3.87
2018-05-25T12:37:42.294Z,3.40
2018-05-25T12:40:08.094Z,18.50
2018-05-25T12:42:33.900Z,6.70
2018-05-25T12:45:11.897Z,5.97
2018-05-25T12:47:37.689Z,10.53
2018-05-25T12:50:03.521Z,6.83
2018-05-25T12:52:29.327Z,10.80
2018-05-25T12:54:55.188Z,6.90
2018-05-25T12:57:20.970Z,15.23
2018-05-25T12:59:46.784Z,14.00
2018-05-25T13:02:12.579Z,5.97
2018-05-25T13:04:38.374Z,6.10
2018-05-25T13:07:04.205Z,6.90
2018-05-25T13:09:30.005Z,9.00
2018-05-25T13:11:55.781Z,5.80
2018-05-25T13:14:21.584Z,4.00
2018-05-25T13:16:47.375Z,5.30
2018-05-25T13:19:13.160Z,4.30
2018-05-25T13:21:38.947Z,7.60
2018-05-25T13:24:04.754Z,8.77
2018-05-25T13:26:30.577Z,4.93
2018-05-25T13:28:56.354Z,6.23
2018-05-25T13:31:22.169Z,4.80
2018-05-25T13:33:47.961Z,6.20
2018-05-25T13:36:13.753Z,5.47
2018-05-25T13:38:40.049Z,15.13
2018-05-25T13:41:05.874Z,6.83
2018-05-25T13:43:31.680Z,4.10
2018-05-25T13:45:57.468Z,5.40
2018-05-25T13:48:23.265Z,7.97
2018-05-25T13:50:49.054Z,10.70
2018-05-25T13:53:14.902Z,18.37
2018-05-25T13:55:40.700Z,7.70
2018-05-25T13:58:06.481Z,4.97
2018-05-25T14:00:32.325Z,4.40
2018-05-25T14:02:58.114Z,6.57
2018-05-25T14:05:23.899Z,5.20
2018-05-25T14:07:49.972Z,4.20
2018-05-25T14:10:15.775Z,3.30
2018-05-25T14:12:41.580Z,3.07
2018-05-25T14:15:07.393Z,3.03
2018-05-25T14:17:33.315Z,3.20
2018-05-25T14:19:59.473Z,3.10
2018-05-25T14:22:25.261Z,2.67
2018-05-25T14:24:51.037Z,2.40
2018-05-25T14:27:16.852Z,3.07
2018-05-25T14:29:42.645Z,3.00
2018-05-25T14:32:08.458Z,3.37
2018-05-25T14:34:34.296Z,2.97
2018-05-25T14:37:00.102Z,2.70
2018-05-25T14:39:25.934Z,2.53
2018-05-25T14:41:51.775Z,2.17
2018-05-25T14:44:17.571Z,3.30
2018-05-25T14:46:43.361Z,5.40
2018-05-25T14:49:09.192Z,21.93
2018-05-25T14:51:35.123Z,7.23
2018-05-25T14:54:01.006Z,16.40
2018-05-25T14:56:26.761Z,12.10
2018-05-25T14:58:52.555Z,4.50
2018-05-25T15:01:18.347Z,5.73
2018-05-25T15:03:44.141Z,13.20
2018-05-25T15:06:09.957Z,3.90
2018-05-25T15:08:35.769Z,5.23
2018-05-25T15:11:02.051Z,5.00
2018-05-25T15:13:27.875Z,2.83
2018-05-25T15:15:53.699Z,3.70
2018-05-25T15:18:19.500Z,3.83
2018-05-25T15:20:45.306Z,3.80
2018-05-25T15:23:11.577Z,3.77
2018-05-25T15:25:37.380Z,11.00
2018-05-25T15:28:03.219Z,7.40
2018-05-25T15:30:29.666Z,4.80
2018-05-25T15:32:55.466Z,9.17
2018-05-25T15:35:21.366Z,5.00
2018-05-25T15:37:47.817Z,5.43
2018-05-25T15:40:13.617Z,6.10
2018-05-25T15:42:39.434Z,3.77
2018-05-25T15:45:05.634Z,4.43
2018-05-25T15:47:31.587Z,3.30
2018-05-25T15:49:57.451Z,3.07
2018-05-25T15:52:23.323Z,3.10
2018-05-25T15:54:49.122Z,2.87
2018-05-25T15:57:14.963Z,2.30
2018-05-25T15:59:40.818Z,3.50
2018-05-25T16:02:06.642Z,3.40
2018-05-25T16:04:32.458Z,3.10
2018-05-25T16:06:58.262Z,6.20
2018-05-25T16:09:24.081Z,14.57
2018-05-25T16:11:49.874Z,2.70
2018-05-25T16:14:15.697Z,5.40
2018-05-25T16:16:41.485Z,4.67
2018-05-25T16:19:07.269Z,3.50
2018-05-25T16:21:33.174Z,3.17
2018-05-25T16:23:58.990Z,3.40
2018-05-25T16:26:24.778Z,4.13
2018-05-25T16:28:50.645Z,4.17
2018-05-25T16:31:16.398Z,5.83
2018-05-25T16:33:42.177Z,2.20
2018-05-25T16:36:07.978Z,4.10
2018-05-25T16:38:33.793Z,2.60
2018-05-25T16:40:59.889Z,3.60
2018-05-25T16:43:25.814Z,3.70
2018-05-25T16:45:51.623Z,2.43
2018-05-25T16:48:17.476Z,1.90
2018-05-25T16:50:43.484Z,2.60
2018-05-25T16:53:09.291Z,2.63
2018-05-25T16:55:35.075Z,2.83
2018-05-25T16:58:00.874Z,1.93
2018-05-25T17:00:26.693Z,2.20
2018-05-25T17:02:52.474Z,2.40
2018-05-25T17:05:18.603Z,4.57
2018-05-25T17:07:44.409Z,5.57
2018-05-25T17:10:10.198Z,7.50
2018-05-25T17:12:36.076Z,11.97
2018-05-25T17:15:01.834Z,7.27
2018-05-25T17:17:27.633Z,5.37
2018-05-25T17:19:53.439Z,4.63
2018-05-25T17:22:19.238Z,2.50
2018-05-25T17:24:45.043Z,8.10
2018-05-25T17:27:10.854Z,2.10
2018-05-25T17:29:36.671Z,2.27
2018-05-25T17:32:02.470Z,2.10
2018-05-25T17:34:28.281Z,2.13
2018-05-25T17:36:54.071Z,2.03
2018-05-25T17:39:19.856Z,2.70
2018-05-25T17:41:45.662Z,6.67
2018-05-25T17:44:11.472Z,6.70
2018-05-25T17:46:37.264Z,10.00
2018-05-25T17:49:03.104Z,4.43
2018-05-25T17:51:29.255Z,3.13
2018-05-25T17:53:55.051Z,4.83
2018-05-25T17:56:20.841Z,4.33
2018-05-25T17:58:46.666Z,2.47
2018-05-25T18:01:12.445Z,2.40
2018-05-25T18:03:38.259Z,3.57
2018-05-25T18:06:04.065Z,3.27
2018-05-25T18:08:29.849Z,3.57
2018-05-25T18:10:55.666Z,2.27
2018-05-25T18:13:21.460Z,4.30
2018-05-25T18:15:47.263Z,6.83
2018-05-25T18:18:13.097Z,6.10
2018-05-25T18:20:38.919Z,12.60
2018-05-25T18:23:04.717Z,27.87
2018-05-25T18:25:30.531Z,33.03
2018-05-25T18:27:56.327Z,29.87
2018-05-25T18:30:22.129Z,5.73
2018-05-25T18:32:47.945Z,3.90
2018-05-25T18:35:13.741Z,8.97
2018-05-25T18:37:39.518Z,18.27
2018-05-25T18:40:05.302Z,4.67
2018-05-25T18:42:31.446Z,3.67
2018-05-25T18:44:57.279Z,10.70
2018-05-25T18:47:23.065Z,12.83
2018-05-25T18:49:48.857Z,6.40
2018-05-25T18:52:14.645Z,16.47
2018-05-25T18:54:40.443Z,52.50
2018-05-25T18:57:06.282Z,8.50
2018-05-25T18:59:32.077Z,9.80
2018-05-25T19:01:57.890Z,4.87
2018-05-25T19:04:23.690Z,2.10
2018-05-25T19:06:49.485Z,6.07
2018-05-25T19:09:15.281Z,4.80
2018-05-25T19:11:41.119Z,3.67
2018-05-25T19:14:06.905Z,17.97
2018-05-25T19:16:32.704Z,18.83
2018-05-25T19:18:58.521Z,45.07
2018-05-25T19:21:24.298Z,6.40
2018-05-25T19:23:50.081Z,4.20
2018-05-25T19:26:15.889Z,3.73
2018-05-25T19:28:41.699Z,4.17
2018-05-25T19:31:07.589Z,3.10
2018-05-25T19:33:33.385Z,3.30
2018-05-25T19:35:59.163Z,3.10
2018-05-25T19:38:24.994Z,3.20
2018-05-25T19:40:50.792Z,2.30
2018-05-25T19:45:54.552Z,2.77
2018-05-25T19:48:20.355Z,6.30
2018-05-25T19:50:46.146Z,7.70
2018-05-25T19:53:12.158Z,8.73
2018-05-25T19:55:37.940Z,5.40
2018-05-25T19:58:03.757Z,7.73
2018-05-25T20:00:29.585Z,5.10
2018-05-25T20:02:55.366Z,3.63
2018-05-25T20:05:21.173Z,3.10
2018-05-25T20:07:47.273Z,2.77
2018-05-25T20:10:13.068Z,4.40
2018-05-25T20:12:38.867Z,8.00
2018-05-25T20:15:04.698Z,2.50
2018-05-25T20:17:30.515Z,5.27
2018-05-25T20:19:56.294Z,5.63
2018-05-25T20:22:22.135Z,4.67
2018-05-25T20:24:47.923Z,4.00
2018-05-25T20:27:13.702Z,5.87
2018-05-25T20:29:39.519Z,9.47
2018-05-25T20:32:05.304Z,2.50
2018-05-25T20:34:31.085Z,3.30
2018-05-25T20:36:57.651Z,4.47
2018-05-25T20:39:23.435Z,4.27
2018-05-25T20:41:49.236Z,3.07
2018-05-25T20:44:15.073Z,3.37
2018-05-25T20:46:40.861Z,4.13
2018-05-25T20:49:06.678Z,6.33
2018-05-25T20:51:32.470Z,3.73
2018-05-25T20:53:58.279Z,3.90
2018-05-25T20:56:24.059Z,4.47
2018-05-25T20:58:49.857Z,29.73
2018-05-25T21:01:15.641Z,24.53
2018-05-25T21:03:41.446Z,33.03
2018-05-25T21:06:07.239Z,4.40
2018-05-25T21:08:33.058Z,3.90
2018-05-25T21:10:58.873Z,53.67
2018-05-25T21:13:24.674Z,18.87
2018-05-25T21:15:50.494Z,18.80
2018-05-25T21:18:16.282Z,39.33
2018-05-25T21:20:42.091Z,9.80
2018-05-25T21:23:07.877Z,4.97
2018-05-25T21:25:33.678Z,3.90
2018-05-25T21:27:59.490Z,4.67
2018-05-25T21:30:25.275Z,9.70
2018-05-25T21:32:51.096Z,9.50
2018-05-25T21:35:16.934Z,9.03
2018-05-25T21:37:42.721Z,11.27
2018-05-25T21:40:08.529Z,7.40
2018-05-25T21:42:34.318Z,8.50
2018-05-25T21:45:00.123Z,12.40
2018-05-25T21:47:25.926Z,37.93
2018-05-25T21:49:51.746Z,26.03
2018-05-25T21:52:17.548Z,32.17
2018-05-25T21:54:43.335Z,18.00
2018-05-25T21:57:09.148Z,16.23
2018-05-25T21:59:34.934Z,28.47
2018-05-25T22:02:00.735Z,12.07
2018-05-25T22:04:26.667Z,22.47
2018-05-25T22:06:52.581Z,27.93
2018-05-25T22:09:18.375Z,5.57
2018-05-25T22:11:44.213Z,5.07
2018-05-25T22:14:09.994Z,4.90
2018-05-25T22:16:35.872Z,4.93
2018-05-25T22:19:01.585Z,4.83
2018-05-25T22:21:27.494Z,5.77
2018-05-25T22:23:53.295Z,4.63
2018-05-25T22:26:19.085Z,5.67
2018-05-25T22:28:44.926Z,5.60
2018-05-25T22:31:10.736Z,4.90
2018-05-25T22:33:36.518Z,4.70
2018-05-25T22:36:02.325Z,5.43
2018-05-25T22:38:28.109Z,5.77
2018-05-25T22:40:53.908Z,5.57
2018-05-25T22:43:32.256Z,6.30
2018-05-25T22:46:10.330Z,5.73
2018-05-25T22:48:48.537Z,6.70
2018-05-25T22:51:26.623Z,7.13
2018-05-25T22:53:58.460Z,7.63
2018-05-25T22:56:24.275Z,6.80
2018-05-25T22:58:50.069Z,6.50
2018-05-25T23:01:15.878Z,6.47
2018-05-25T23:03:41.685Z,8.00
2018-05-25T23:06:07.477Z,7.67
2018-05-25T23:08:33.318Z,7.80
2018-05-25T23:10:59.530Z,7.60
2018-05-25T23:13:25.686Z,9.40
2018-05-25T23:15:51.533Z,8.33
2018-05-25T23:18:17.305Z,10.47
2018-05-25T23:20:43.313Z,8.10
2018-05-25T23:23:09.154Z,18.27
2018-05-25T23:25:34.950Z,42.87
2018-05-25T23:28:00.741Z,47.77
2018-05-25T23:30:26.530Z,24.30
2018-05-25T23:32:52.340Z,12.53
2018-05-25T23:35:18.154Z,19.47
2018-05-25T23:37:43.973Z,19.13
2018-05-25T23:40:09.755Z,43.03
2018-05-25T23:42:36.318Z,26.37
2018-05-25T23:45:02.131Z,53.97
2018-05-25T23:47:28.221Z,23.30
2018-05-25T23:49:54.004Z,49.17
2018-05-25T23:52:20.014Z,17.60
2018-05-25T23:54:45.814Z,31.07
2018-05-25T23:57:11.605Z,66.93
2018-05-25T23:59:37.574Z,69.80
